sensor_id;sensor_type;location;lat;lon;timestamp;temperature;humidity
4306;DHT22;2166;49.926;8.608;2022-07-09T00:01:04;15.90;77.30
4306;DHT22;2166;49.926;8.608;2022-07-09T00:03:33;15.80;77.30
4306;DHT22;2166;49.926;8.608;2022-07-09T00:06:01;15.70;77.40
4306;DHT22;2166;49.926;8.608;2022-07-09T00:08:30;15.70;77.40
4306;DHT22;2166;49.926;8.608;2022-07-09T00:10:59;15.60;77.40
4306;DHT22;2166;49.926;8.608;2022-07-09T00:13:28;15.60;77.60
4306;DHT22;2166;49.926;8.608;2022-07-09T00:15:56;15.60;77.50
4306;DHT22;2166;49.926;8.608;2022-07-09T00:18:24;15.50;77.50
4306;DHT22;2166;49.926;8.608;2022-07-09T00:20:53;15.50;77.30
4306;DHT22;2166;49.926;8.608;2022-07-09T00:23:21;15.50;77.50
4306;DHT22;2166;49.926;8.608;2022-07-09T00:25:50;15.50;77.50
4306;DHT22;2166;49.926;8.608;2022-07-09T00:28:21;15.50;77.80
4306;DHT22;2166;49.926;8.608;2022-07-09T00:30:49;15.40;77.90
4306;DHT22;2166;49.926;8.608;2022-07-09T00:33:17;15.30;78.20
4306;DHT22;2166;49.926;8.608;2022-07-09T00:35:45;15.20;78.40
4306;DHT22;2166;49.926;8.608;2022-07-09T00:38:13;15.20;78.70
4306;DHT22;2166;49.926;8.608;2022-07-09T00:40:41;15.00;78.80
4306;DHT22;2166;49.926;8.608;2022-07-09T00:43:17;15.00;79.20
4306;DHT22;2166;49.926;8.608;2022-07-09T00:45:47;15.00;79.20
4306;DHT22;2166;49.926;8.608;2022-07-09T00:48:16;14.90;79.40
4306;DHT22;2166;49.926;8.608;2022-07-09T00:50:47;14.90;79.10
4306;DHT22;2166;49.926;8.608;2022-07-09T00:53:16;14.80;79.00
4306;DHT22;2166;49.926;8.608;2022-07-09T00:55:47;14.80;78.90
4306;DHT22;2166;49.926;8.608;2022-07-09T00:58:16;14.80;79.00
4306;DHT22;2166;49.926;8.608;2022-07-09T01:00:46;14.80;78.90
4306;DHT22;2166;49.926;8.608;2022-07-09T01:03:15;14.80;78.90
4306;DHT22;2166;49.926;8.608;2022-07-09T01:05:43;14.80;79.00
4306;DHT22;2166;49.926;8.608;2022-07-09T01:08:11;14.80;78.90
4306;DHT22;2166;49.926;8.608;2022-07-09T01:10:41;14.80;78.70
4306;DHT22;2166;49.926;8.608;2022-07-09T01:13:09;14.70;78.70
4306;DHT22;2166;49.926;8.608;2022-07-09T01:15:38;14.70;78.90
4306;DHT22;2166;49.926;8.608;2022-07-09T01:18:11;14.70;79.10
4306;DHT22;2166;49.926;8.608;2022-07-09T01:20:40;14.70;79.10
4306;DHT22;2166;49.926;8.608;2022-07-09T01:23:09;14.60;79.20
4306;DHT22;2166;49.926;8.608;2022-07-09T01:25:38;14.60;79.40
4306;DHT22;2166;49.926;8.608;2022-07-09T01:28:08;14.50;79.40
4306;DHT22;2166;49.926;8.608;2022-07-09T01:30:39;14.60;79.20
4306;DHT22;2166;49.926;8.608;2022-07-09T01:33:08;14.50;79.30
4306;DHT22;2166;49.926;8.608;2022-07-09T01:35:37;14.50;79.50
4306;DHT22;2166;49.926;8.608;2022-07-09T01:38:06;14.40;79.50
4306;DHT22;2166;49.926;8.608;2022-07-09T01:40:34;14.40;79.70
4306;DHT22;2166;49.926;8.608;2022-07-09T01:43:03;14.40;79.70
4306;DHT22;2166;49.926;8.608;2022-07-09T01:45:32;14.40;79.70
4306;DHT22;2166;49.926;8.608;2022-07-09T01:48:00;14.50;79.70
4306;DHT22;2166;49.926;8.608;2022-07-09T01:50:28;14.50;79.50
4306;DHT22;2166;49.926;8.608;2022-07-09T01:52:56;14.40;79.20
4306;DHT22;2166;49.926;8.608;2022-07-09T01:55:26;14.40;79.50
4306;DHT22;2166;49.926;8.608;2022-07-09T01:57:54;14.40;79.20
4306;DHT22;2166;49.926;8.608;2022-07-09T02:00:22;14.40;79.20
4306;DHT22;2166;49.926;8.608;2022-07-09T02:02:51;14.30;79.30
4306;DHT22;2166;49.926;8.608;2022-07-09T02:05:19;14.30;79.30
4306;DHT22;2166;49.926;8.608;2022-07-09T02:07:47;14.20;79.30
4306;DHT22;2166;49.926;8.608;2022-07-09T02:10:16;14.20;79.30
4306;DHT22;2166;49.926;8.608;2022-07-09T02:12:45;14.20;79.30
4306;DHT22;2166;49.926;8.608;2022-07-09T02:15:14;14.20;79.40
4306;DHT22;2166;49.926;8.608;2022-07-09T02:17:42;14.20;79.40
4306;DHT22;2166;49.926;8.608;2022-07-09T02:20:10;14.20;79.60
4306;DHT22;2166;49.926;8.608;2022-07-09T02:22:39;14.20;79.80
4306;DHT22;2166;49.926;8.608;2022-07-09T02:25:08;14.20;79.80
4306;DHT22;2166;49.926;8.608;2022-07-09T02:27:36;14.20;79.80
4306;DHT22;2166;49.926;8.608;2022-07-09T02:30:06;14.10;79.90
4306;DHT22;2166;49.926;8.608;2022-07-09T02:32:35;13.90;80.10
4306;DHT22;2166;49.926;8.608;2022-07-09T02:35:06;13.80;80.60
4306;DHT22;2166;49.926;8.608;2022-07-09T02:37:34;13.70;80.80
4306;DHT22;2166;49.926;8.608;2022-07-09T02:40:03;13.70;80.80
4306;DHT22;2166;49.926;8.608;2022-07-09T02:42:32;13.60;81.10
4306;DHT22;2166;49.926;8.608;2022-07-09T02:45:00;13.60;81.30
4306;DHT22;2166;49.926;8.608;2022-07-09T02:47:29;13.60;81.20
4306;DHT22;2166;49.926;8.608;2022-07-09T02:49:58;13.60;81.30
4306;DHT22;2166;49.926;8.608;2022-07-09T02:52:26;13.50;81.50
4306;DHT22;2166;49.926;8.608;2022-07-09T02:54:54;13.60;81.70
4306;DHT22;2166;49.926;8.608;2022-07-09T02:57:22;13.70;81.50
4306;DHT22;2166;49.926;8.608;2022-07-09T02:59:50;13.70;81.20
4306;DHT22;2166;49.926;8.608;2022-07-09T03:02:18;13.70;81.10
4306;DHT22;2166;49.926;8.608;2022-07-09T03:04:48;13.70;81.10
4306;DHT22;2166;49.926;8.608;2022-07-09T03:07:16;13.70;81.20
4306;DHT22;2166;49.926;8.608;2022-07-09T03:09:44;13.70;81.20
4306;DHT22;2166;49.926;8.608;2022-07-09T03:12:12;13.70;81.30
4306;DHT22;2166;49.926;8.608;2022-07-09T03:14:40;13.70;81.30
4306;DHT22;2166;49.926;8.608;2022-07-09T03:17:10;13.70;81.20
4306;DHT22;2166;49.926;8.608;2022-07-09T03:19:38;13.70;81.30
4306;DHT22;2166;49.926;8.608;2022-07-09T03:22:07;13.70;81.20
4306;DHT22;2166;49.926;8.608;2022-07-09T03:27:40;13.70;81.00
4306;DHT22;2166;49.926;8.608;2022-07-09T03:30:09;13.60;81.10
4306;DHT22;2166;49.926;8.608;2022-07-09T03:32:37;13.50;81.10
4306;DHT22;2166;49.926;8.608;2022-07-09T03:35:06;13.50;81.40
4306;DHT22;2166;49.926;8.608;2022-07-09T03:37:36;13.50;81.40
4306;DHT22;2166;49.926;8.608;2022-07-09T03:40:05;13.60;81.50
4306;DHT22;2166;49.926;8.608;2022-07-09T03:42:34;13.60;81.50
4306;DHT22;2166;49.926;8.608;2022-07-09T03:45:03;13.60;81.50
4306;DHT22;2166;49.926;8.608;2022-07-09T03:47:31;13.70;81.40
4306;DHT22;2166;49.926;8.608;2022-07-09T03:49:59;13.80;81.40
4306;DHT22;2166;49.926;8.608;2022-07-09T03:52:28;13.80;81.30
4306;DHT22;2166;49.926;8.608;2022-07-09T03:54:57;13.90;81.20
4306;DHT22;2166;49.926;8.608;2022-07-09T03:57:25;14.00;80.80
4306;DHT22;2166;49.926;8.608;2022-07-09T03:59:54;14.10;80.70
4306;DHT22;2166;49.926;8.608;2022-07-09T04:02:22;14.10;80.70
4306;DHT22;2166;49.926;8.608;2022-07-09T04:04:50;14.20;80.60
4306;DHT22;2166;49.926;8.608;2022-07-09T04:07:19;14.30;80.50
4306;DHT22;2166;49.926;8.608;2022-07-09T04:09:47;14.40;80.40
4306;DHT22;2166;49.926;8.608;2022-07-09T04:12:18;14.50;80.10
4306;DHT22;2166;49.926;8.608;2022-07-09T04:14:46;14.70;80.00
4306;DHT22;2166;49.926;8.608;2022-07-09T04:17:14;15.00;79.60
4306;DHT22;2166;49.926;8.608;2022-07-09T04:19:43;15.20;79.00
4306;DHT22;2166;49.926;8.608;2022-07-09T04:22:11;15.60;78.50
4306;DHT22;2166;49.926;8.608;2022-07-09T04:24:39;16.00;77.40
4306;DHT22;2166;49.926;8.608;2022-07-09T04:27:07;16.10;76.60
4306;DHT22;2166;49.926;8.608;2022-07-09T04:29:36;16.30;76.40
4306;DHT22;2166;49.926;8.608;2022-07-09T04:32:05;16.30;76.20
4306;DHT22;2166;49.926;8.608;2022-07-09T04:34:33;16.60;76.30
4306;DHT22;2166;49.926;8.608;2022-07-09T04:37:02;17.30;75.40
4306;DHT22;2166;49.926;8.608;2022-07-09T04:39:30;17.90;73.90
4306;DHT22;2166;49.926;8.608;2022-07-09T04:41:59;18.50;72.70
4306;DHT22;2166;49.926;8.608;2022-07-09T04:44:27;19.10;71.90
4306;DHT22;2166;49.926;8.608;2022-07-09T04:46:57;19.80;70.30
4306;DHT22;2166;49.926;8.608;2022-07-09T04:49:25;20.40;69.50
4306;DHT22;2166;49.926;8.608;2022-07-09T04:51:53;21.10;68.40
4306;DHT22;2166;49.926;8.608;2022-07-09T04:54:21;21.80;67.20
4306;DHT22;2166;49.926;8.608;2022-07-09T04:56:49;22.10;66.80
4306;DHT22;2166;49.926;8.608;2022-07-09T04:59:17;22.30;66.10
4306;DHT22;2166;49.926;8.608;2022-07-09T05:01:46;22.70;65.50
4306;DHT22;2166;49.926;8.608;2022-07-09T05:04:16;23.30;64.40
4306;DHT22;2166;49.926;8.608;2022-07-09T05:06:44;23.90;63.20
4306;DHT22;2166;49.926;8.608;2022-07-09T05:09:13;24.10;62.10
4306;DHT22;2166;49.926;8.608;2022-07-09T05:11:41;24.20;61.90
4306;DHT22;2166;49.926;8.608;2022-07-09T05:14:09;23.90;62.40
4306;DHT22;2166;49.926;8.608;2022-07-09T05:16:37;23.60;63.10
4306;DHT22;2166;49.926;8.608;2022-07-09T05:19:11;23.20;63.70
4306;DHT22;2166;49.926;8.608;2022-07-09T05:21:41;22.80;64.80
4306;DHT22;2166;49.926;8.608;2022-07-09T05:24:09;22.90;64.90
4306;DHT22;2166;49.926;8.608;2022-07-09T05:26:37;22.90;64.90
4306;DHT22;2166;49.926;8.608;2022-07-09T05:29:06;22.70;65.00
4306;DHT22;2166;49.926;8.608;2022-07-09T05:31:34;22.10;66.00
4306;DHT22;2166;49.926;8.608;2022-07-09T05:34:02;21.60;67.00
4306;DHT22;2166;49.926;8.608;2022-07-09T05:36:31;21.30;67.70
4306;DHT22;2166;49.926;8.608;2022-07-09T05:39:01;21.80;67.10
4306;DHT22;2166;49.926;8.608;2022-07-09T05:41:29;22.80;65.30
4306;DHT22;2166;49.926;8.608;2022-07-09T05:43:57;23.70;63.80
4306;DHT22;2166;49.926;8.608;2022-07-09T05:46:26;24.40;61.60
4306;DHT22;2166;49.926;8.608;2022-07-09T05:48:54;24.40;60.80
4306;DHT22;2166;49.926;8.608;2022-07-09T05:51:22;24.20;61.30
4306;DHT22;2166;49.926;8.608;2022-07-09T05:53:50;24.00;61.80
4306;DHT22;2166;49.926;8.608;2022-07-09T05:56:20;24.00;61.80
4306;DHT22;2166;49.926;8.608;2022-07-09T05:58:48;24.20;61.70
4306;DHT22;2166;49.926;8.608;2022-07-09T06:01:17;24.30;61.20
4306;DHT22;2166;49.926;8.608;2022-07-09T06:03:52;24.60;60.60
4306;DHT22;2166;49.926;8.608;2022-07-09T06:06:21;25.50;59.50
4306;DHT22;2166;49.926;8.608;2022-07-09T06:08:49;26.10;57.50
4306;DHT22;2166;49.926;8.608;2022-07-09T06:11:20;26.30;57.20
4306;DHT22;2166;49.926;8.608;2022-07-09T06:13:48;26.50;56.50
4306;DHT22;2166;49.926;8.608;2022-07-09T06:16:17;26.70;56.20
4306;DHT22;2166;49.926;8.608;2022-07-09T06:18:45;27.40;54.90
4306;DHT22;2166;49.926;8.608;2022-07-09T06:21:13;27.80;54.30
4306;DHT22;2166;49.926;8.608;2022-07-09T06:23:41;28.20;53.60
4306;DHT22;2166;49.926;8.608;2022-07-09T06:26:10;28.70;53.00
4306;DHT22;2166;49.926;8.608;2022-07-09T06:28:40;29.50;52.10
4306;DHT22;2166;49.926;8.608;2022-07-09T06:31:08;30.40;50.10
4306;DHT22;2166;49.926;8.608;2022-07-09T06:33:36;31.10;48.40
4306;DHT22;2166;49.926;8.608;2022-07-09T06:36:05;31.30;47.80
4306;DHT22;2166;49.926;8.608;2022-07-09T06:38:33;31.90;46.80
4306;DHT22;2166;49.926;8.608;2022-07-09T06:41:22;32.30;46.30
4306;DHT22;2166;49.926;8.608;2022-07-09T06:43:51;32.70;45.90
4306;DHT22;2166;49.926;8.608;2022-07-09T06:46:19;32.50;45.50
4306;DHT22;2166;49.926;8.608;2022-07-09T06:48:48;32.00;45.70
4306;DHT22;2166;49.926;8.608;2022-07-09T06:51:16;31.00;47.60
4306;DHT22;2166;49.926;8.608;2022-07-09T06:53:44;30.60;48.60
4306;DHT22;2166;49.926;8.608;2022-07-09T06:56:12;31.50;47.30
4306;DHT22;2166;49.926;8.608;2022-07-09T06:58:40;31.40;46.70
4306;DHT22;2166;49.926;8.608;2022-07-09T07:01:10;31.20;48.00
4306;DHT22;2166;49.926;8.608;2022-07-09T07:03:38;32.20;46.60
4306;DHT22;2166;49.926;8.608;2022-07-09T07:06:06;32.80;44.70
4306;DHT22;2166;49.926;8.608;2022-07-09T07:08:35;32.50;45.00
4306;DHT22;2166;49.926;8.608;2022-07-09T07:11:04;31.80;46.20
4306;DHT22;2166;49.926;8.608;2022-07-09T07:13:33;31.20;47.10
4306;DHT22;2166;49.926;8.608;2022-07-09T07:16:01;30.40;48.40
4306;DHT22;2166;49.926;8.608;2022-07-09T07:18:31;29.90;49.20
4306;DHT22;2166;49.926;8.608;2022-07-09T07:21:00;29.60;49.70
4306;DHT22;2166;49.926;8.608;2022-07-09T07:23:28;29.80;50.20
4306;DHT22;2166;49.926;8.608;2022-07-09T07:25:58;29.80;50.50
4306;DHT22;2166;49.926;8.608;2022-07-09T07:28:27;29.60;50.60
4306;DHT22;2166;49.926;8.608;2022-07-09T07:30:55;29.20;50.90
4306;DHT22;2166;49.926;8.608;2022-07-09T07:33:23;28.70;51.80
4306;DHT22;2166;49.926;8.608;2022-07-09T07:35:53;28.00;53.70
4306;DHT22;2166;49.926;8.608;2022-07-09T07:38:21;27.30;55.00
4306;DHT22;2166;49.926;8.608;2022-07-09T07:40:54;27.10;56.00
4306;DHT22;2166;49.926;8.608;2022-07-09T07:43:22;26.90;56.20
4306;DHT22;2166;49.926;8.608;2022-07-09T07:45:50;26.90;56.10
4306;DHT22;2166;49.926;8.608;2022-07-09T07:48:18;26.80;57.20
4306;DHT22;2166;49.926;8.608;2022-07-09T07:50:47;27.00;56.60
4306;DHT22;2166;49.926;8.608;2022-07-09T07:53:16;27.10;56.10
4306;DHT22;2166;49.926;8.608;2022-07-09T07:55:44;26.80;56.40
4306;DHT22;2166;49.926;8.608;2022-07-09T07:58:13;26.40;57.50
4306;DHT22;2166;49.926;8.608;2022-07-09T08:00:41;26.10;58.40
4306;DHT22;2166;49.926;8.608;2022-07-09T08:03:09;26.00;58.50
4306;DHT22;2166;49.926;8.608;2022-07-09T08:05:38;26.10;58.60
4306;DHT22;2166;49.926;8.608;2022-07-09T08:08:06;26.20;58.20
4306;DHT22;2166;49.926;8.608;2022-07-09T08:10:35;26.70;57.40
4306;DHT22;2166;49.926;8.608;2022-07-09T08:13:04;27.50;56.20
4306;DHT22;2166;49.926;8.608;2022-07-09T08:15:32;28.40;54.50
4306;DHT22;2166;49.926;8.608;2022-07-09T08:18:00;28.90;53.00
4306;DHT22;2166;49.926;8.608;2022-07-09T08:20:29;29.00;51.60
4306;DHT22;2166;49.926;8.608;2022-07-09T08:22:57;29.30;51.60
4306;DHT22;2166;49.926;8.608;2022-07-09T08:25:25;30.00;49.80
4306;DHT22;2166;49.926;8.608;2022-07-09T08:27:54;30.20;49.60
4306;DHT22;2166;49.926;8.608;2022-07-09T08:30:23;30.70;49.00
4306;DHT22;2166;49.926;8.608;2022-07-09T08:32:51;31.30;47.00
4306;DHT22;2166;49.926;8.608;2022-07-09T08:35:19;32.50;45.60
4306;DHT22;2166;49.926;8.608;2022-07-09T08:37:47;33.80;44.00
4306;DHT22;2166;49.926;8.608;2022-07-09T08:40:15;35.70;41.00
4306;DHT22;2166;49.926;8.608;2022-07-09T08:42:44;38.00;38.30
4306;DHT22;2166;49.926;8.608;2022-07-09T08:45:14;37.90;37.00
4306;DHT22;2166;49.926;8.608;2022-07-09T08:47:44;38.10;37.10
4306;DHT22;2166;49.926;8.608;2022-07-09T08:50:13;37.40;37.00
4306;DHT22;2166;49.926;8.608;2022-07-09T08:52:41;35.30;39.50
4306;DHT22;2166;49.926;8.608;2022-07-09T08:55:10;34.00;41.50
4306;DHT22;2166;49.926;8.608;2022-07-09T08:57:38;33.20;43.10
4306;DHT22;2166;49.926;8.608;2022-07-09T09:00:07;32.30;44.10
4306;DHT22;2166;49.926;8.608;2022-07-09T09:02:37;31.40;46.00
4306;DHT22;2166;49.926;8.608;2022-07-09T09:05:11;30.80;47.00
4306;DHT22;2166;49.926;8.608;2022-07-09T09:07:40;30.30;47.30
4306;DHT22;2166;49.926;8.608;2022-07-09T09:10:15;30.20;47.50
4306;DHT22;2166;49.926;8.608;2022-07-09T09:12:49;30.90;46.20
4306;DHT22;2166;49.926;8.608;2022-07-09T09:15:18;31.60;46.10
4306;DHT22;2166;49.926;8.608;2022-07-09T09:17:48;32.80;44.00
4306;DHT22;2166;49.926;8.608;2022-07-09T09:20:17;33.30;43.20
4306;DHT22;2166;49.926;8.608;2022-07-09T09:22:47;35.00;40.80
4306;DHT22;2166;49.926;8.608;2022-07-09T09:25:16;36.00;39.20
4306;DHT22;2166;49.926;8.608;2022-07-09T09:27:52;36.70;38.00
4306;DHT22;2166;49.926;8.608;2022-07-09T09:30:21;37.20;36.60
4306;DHT22;2166;49.926;8.608;2022-07-09T09:32:58;35.90;37.70
4306;DHT22;2166;49.926;8.608;2022-07-09T09:35:28;34.30;39.50
4306;DHT22;2166;49.926;8.608;2022-07-09T09:37:56;33.60;41.40
4306;DHT22;2166;49.926;8.608;2022-07-09T09:40:25;34.90;39.60
4306;DHT22;2166;49.926;8.608;2022-07-09T09:42:54;36.20;37.70
4306;DHT22;2166;49.926;8.608;2022-07-09T09:45:26;37.40;36.10
4306;DHT22;2166;49.926;8.608;2022-07-09T09:47:59;37.30;36.20
4306;DHT22;2166;49.926;8.608;2022-07-09T09:50:28;37.70;35.70
4306;DHT22;2166;49.926;8.608;2022-07-09T09:52:56;38.80;34.80
4306;DHT22;2166;49.926;8.608;2022-07-09T09:55:24;39.70;33.10
4306;DHT22;2166;49.926;8.608;2022-07-09T09:57:53;39.20;33.40
4306;DHT22;2166;49.926;8.608;2022-07-09T10:00:21;37.70;34.60
4306;DHT22;2166;49.926;8.608;2022-07-09T10:02:52;37.20;35.30
4306;DHT22;2166;49.926;8.608;2022-07-09T10:05:22;37.90;35.20
4306;DHT22;2166;49.926;8.608;2022-07-09T10:07:50;39.40;33.10
4306;DHT22;2166;49.926;8.608;2022-07-09T10:10:20;41.20;31.70
4306;DHT22;2166;49.926;8.608;2022-07-09T10:12:48;40.80;31.40
4306;DHT22;2166;49.926;8.608;2022-07-09T10:15:21;39.30;32.60
4306;DHT22;2166;49.926;8.608;2022-07-09T10:17:50;37.30;35.10
4306;DHT22;2166;49.926;8.608;2022-07-09T10:20:30;35.80;36.80
4306;DHT22;2166;49.926;8.608;2022-07-09T10:23:02;34.90;37.70
4306;DHT22;2166;49.926;8.608;2022-07-09T10:25:43;34.10;39.00
4306;DHT22;2166;49.926;8.608;2022-07-09T10:28:14;33.40;39.30
4306;DHT22;2166;49.926;8.608;2022-07-09T10:30:42;32.90;40.00
4306;DHT22;2166;49.926;8.608;2022-07-09T10:33:12;32.70;40.50
4306;DHT22;2166;49.926;8.608;2022-07-09T10:35:43;32.20;41.40
4306;DHT22;2166;49.926;8.608;2022-07-09T10:38:14;33.10;40.50
4306;DHT22;2166;49.926;8.608;2022-07-09T10:40:43;33.50;39.60
4306;DHT22;2166;49.926;8.608;2022-07-09T10:43:13;34.00;39.20
4306;DHT22;2166;49.926;8.608;2022-07-09T10:45:42;34.20;39.30
4306;DHT22;2166;49.926;8.608;2022-07-09T10:48:12;34.90;37.90
4306;DHT22;2166;49.926;8.608;2022-07-09T10:50:43;36.70;35.90
4306;DHT22;2166;49.926;8.608;2022-07-09T10:53:12;38.30;34.10
4306;DHT22;2166;49.926;8.608;2022-07-09T10:55:42;38.10;34.10
4306;DHT22;2166;49.926;8.608;2022-07-09T10:58:18;38.10;34.00
4306;DHT22;2166;49.926;8.608;2022-07-09T11:00:54;38.20;33.50
4306;DHT22;2166;49.926;8.608;2022-07-09T11:03:24;38.80;33.30
4306;DHT22;2166;49.926;8.608;2022-07-09T11:05:55;39.90;32.60
4306;DHT22;2166;49.926;8.608;2022-07-09T11:08:23;41.30;31.70
4306;DHT22;2166;49.926;8.608;2022-07-09T11:10:52;41.20;30.70
4306;DHT22;2166;49.926;8.608;2022-07-09T11:13:23;40.10;31.80
4306;DHT22;2166;49.926;8.608;2022-07-09T11:15:58;41.10;31.30
4306;DHT22;2166;49.926;8.608;2022-07-09T11:18:28;42.90;29.20
4306;DHT22;2166;49.926;8.608;2022-07-09T11:20:58;42.80;29.00
4306;DHT22;2166;49.926;8.608;2022-07-09T11:23:26;42.10;29.60
4306;DHT22;2166;49.926;8.608;2022-07-09T11:25:54;42.40;29.50
4306;DHT22;2166;49.926;8.608;2022-07-09T11:28:24;41.90;29.50
4306;DHT22;2166;49.926;8.608;2022-07-09T11:31:00;40.40;30.70
4306;DHT22;2166;49.926;8.608;2022-07-09T11:33:29;39.90;31.40
4306;DHT22;2166;49.926;8.608;2022-07-09T11:36:19;39.80;31.10
4306;DHT22;2166;49.926;8.608;2022-07-09T11:38:49;39.40;31.20
4306;DHT22;2166;49.926;8.608;2022-07-09T11:41:17;38.40;31.90
4306;DHT22;2166;49.926;8.608;2022-07-09T11:43:47;38.10;32.70
4306;DHT22;2166;49.926;8.608;2022-07-09T11:46:16;38.00;32.60
4306;DHT22;2166;49.926;8.608;2022-07-09T11:48:49;38.00;32.70
4306;DHT22;2166;49.926;8.608;2022-07-09T11:51:28;38.70;32.30
4306;DHT22;2166;49.926;8.608;2022-07-09T11:53:56;39.00;32.30
4306;DHT22;2166;49.926;8.608;2022-07-09T11:56:25;39.70;31.40
4306;DHT22;2166;49.926;8.608;2022-07-09T11:58:53;39.70;31.50
4306;DHT22;2166;49.926;8.608;2022-07-09T12:01:23;38.20;32.40
4306;DHT22;2166;49.926;8.608;2022-07-09T12:03:52;37.10;34.40
4306;DHT22;2166;49.926;8.608;2022-07-09T12:06:20;38.10;33.60
4306;DHT22;2166;49.926;8.608;2022-07-09T12:08:58;39.00;31.70
4306;DHT22;2166;49.926;8.608;2022-07-09T12:11:28;39.80;31.40
4306;DHT22;2166;49.926;8.608;2022-07-09T12:13:57;39.10;31.20
4306;DHT22;2166;49.926;8.608;2022-07-09T12:16:26;38.80;31.50
4306;DHT22;2166;49.926;8.608;2022-07-09T12:18:54;37.60;32.70
4306;DHT22;2166;49.926;8.608;2022-07-09T12:21:24;36.10;34.30
4306;DHT22;2166;49.926;8.608;2022-07-09T12:23:53;35.40;35.60
4306;DHT22;2166;49.926;8.608;2022-07-09T12:26:22;34.70;36.00
4306;DHT22;2166;49.926;8.608;2022-07-09T12:28:50;34.10;36.90
4306;DHT22;2166;49.926;8.608;2022-07-09T12:31:23;34.30;36.70
4306;DHT22;2166;49.926;8.608;2022-07-09T12:33:52;35.00;36.20
4306;DHT22;2166;49.926;8.608;2022-07-09T12:36:21;35.80;35.70
4306;DHT22;2166;49.926;8.608;2022-07-09T12:39:10;36.70;34.00
4306;DHT22;2166;49.926;8.608;2022-07-09T12:41:38;36.90;33.50
4306;DHT22;2166;49.926;8.608;2022-07-09T12:44:07;36.80;33.40
4306;DHT22;2166;49.926;8.608;2022-07-09T12:46:35;36.90;33.80
4306;DHT22;2166;49.926;8.608;2022-07-09T12:49:04;37.30;32.70
4306;DHT22;2166;49.926;8.608;2022-07-09T12:51:32;36.40;34.30
4306;DHT22;2166;49.926;8.608;2022-07-09T12:54:00;35.80;35.20
4306;DHT22;2166;49.926;8.608;2022-07-09T12:56:29;35.60;35.70
4306;DHT22;2166;49.926;8.608;2022-07-09T12:59:18;35.80;35.60
4306;DHT22;2166;49.926;8.608;2022-07-09T13:01:46;35.90;35.60
4306;DHT22;2166;49.926;8.608;2022-07-09T13:04:14;36.00;34.90
4306;DHT22;2166;49.926;8.608;2022-07-09T13:06:43;36.40;35.00
4306;DHT22;2166;49.926;8.608;2022-07-09T13:09:11;36.80;33.80
4306;DHT22;2166;49.926;8.608;2022-07-09T13:11:41;36.30;33.90
4306;DHT22;2166;49.926;8.608;2022-07-09T13:14:09;36.40;34.20
4306;DHT22;2166;49.926;8.608;2022-07-09T13:16:38;35.50;35.50
4306;DHT22;2166;49.926;8.608;2022-07-09T13:19:06;34.80;36.50
4306;DHT22;2166;49.926;8.608;2022-07-09T13:21:34;34.40;36.70
4306;DHT22;2166;49.926;8.608;2022-07-09T13:24:02;34.30;37.20
4306;DHT22;2166;49.926;8.608;2022-07-09T13:26:30;33.90;37.40
4306;DHT22;2166;49.926;8.608;2022-07-09T13:29:04;34.50;37.30
4306;DHT22;2166;49.926;8.608;2022-07-09T13:31:32;35.60;35.70
4306;DHT22;2166;49.926;8.608;2022-07-09T13:34:00;36.80;33.70
4306;DHT22;2166;49.926;8.608;2022-07-09T13:36:28;37.80;32.80
4306;DHT22;2166;49.926;8.608;2022-07-09T13:38:57;37.80;32.60
4306;DHT22;2166;49.926;8.608;2022-07-09T13:41:25;37.40;32.10
4306;DHT22;2166;49.926;8.608;2022-07-09T13:43:53;37.30;32.70
4306;DHT22;2166;49.926;8.608;2022-07-09T13:46:23;37.20;32.20
4306;DHT22;2166;49.926;8.608;2022-07-09T13:48:51;37.00;32.70
4306;DHT22;2166;49.926;8.608;2022-07-09T13:51:19;36.40;33.00
4306;DHT22;2166;49.926;8.608;2022-07-09T13:53:47;35.50;33.70
4306;DHT22;2166;49.926;8.608;2022-07-09T13:56:15;34.80;34.60
4306;DHT22;2166;49.926;8.608;2022-07-09T13:58:47;34.20;36.10
4306;DHT22;2166;49.926;8.608;2022-07-09T14:01:15;33.70;36.40
4306;DHT22;2166;49.926;8.608;2022-07-09T14:03:45;33.20;37.20
4306;DHT22;2166;49.926;8.608;2022-07-09T14:06:13;33.00;37.40
4306;DHT22;2166;49.926;8.608;2022-07-09T14:09:02;32.70;38.10
4306;DHT22;2166;49.926;8.608;2022-07-09T14:11:30;32.30;38.90
4306;DHT22;2166;49.926;8.608;2022-07-09T14:13:58;32.20;38.80
4306;DHT22;2166;49.926;8.608;2022-07-09T14:16:27;32.10;39.10
4306;DHT22;2166;49.926;8.608;2022-07-09T14:18:57;31.80;39.40
4306;DHT22;2166;49.926;8.608;2022-07-09T14:21:25;31.60;39.30
4306;DHT22;2166;49.926;8.608;2022-07-09T14:23:54;31.10;39.70
4306;DHT22;2166;49.926;8.608;2022-07-09T14:26:23;31.20;40.30
4306;DHT22;2166;49.926;8.608;2022-07-09T14:28:51;31.40;39.90
4306;DHT22;2166;49.926;8.608;2022-07-09T14:31:19;31.50;39.90
4306;DHT22;2166;49.926;8.608;2022-07-09T14:33:48;31.50;40.20
4306;DHT22;2166;49.926;8.608;2022-07-09T14:36:17;32.10;39.30
4306;DHT22;2166;49.926;8.608;2022-07-09T14:38:45;32.70;38.80
4306;DHT22;2166;49.926;8.608;2022-07-09T14:41:14;32.70;38.30
4306;DHT22;2166;49.926;8.608;2022-07-09T14:43:42;32.90;37.60
4306;DHT22;2166;49.926;8.608;2022-07-09T14:46:11;33.30;37.20
4306;DHT22;2166;49.926;8.608;2022-07-09T14:48:39;33.70;36.10
4306;DHT22;2166;49.926;8.608;2022-07-09T14:51:08;33.40;35.90
4306;DHT22;2166;49.926;8.608;2022-07-09T14:53:38;33.60;36.10
4306;DHT22;2166;49.926;8.608;2022-07-09T14:56:10;33.60;36.60
4306;DHT22;2166;49.926;8.608;2022-07-09T14:58:39;33.60;36.70
4306;DHT22;2166;49.926;8.608;2022-07-09T15:01:08;33.50;36.60
4306;DHT22;2166;49.926;8.608;2022-07-09T15:03:36;33.10;36.70
4306;DHT22;2166;49.926;8.608;2022-07-09T15:06:05;33.10;36.90
4306;DHT22;2166;49.926;8.608;2022-07-09T15:08:33;33.20;36.60
4306;DHT22;2166;49.926;8.608;2022-07-09T15:11:04;33.40;36.70
4306;DHT22;2166;49.926;8.608;2022-07-09T15:13:32;34.10;35.60
4306;DHT22;2166;49.926;8.608;2022-07-09T15:16:00;34.60;35.40
4306;DHT22;2166;49.926;8.608;2022-07-09T15:18:28;34.50;35.30
4306;DHT22;2166;49.926;8.608;2022-07-09T15:20:57;34.70;35.30
4306;DHT22;2166;49.926;8.608;2022-07-09T15:23:25;34.60;35.10
4306;DHT22;2166;49.926;8.608;2022-07-09T15:25:54;34.50;35.30
4306;DHT22;2166;49.926;8.608;2022-07-09T15:28:23;34.40;35.10
4306;DHT22;2166;49.926;8.608;2022-07-09T15:30:52;34.20;35.50
4306;DHT22;2166;49.926;8.608;2022-07-09T15:33:20;34.10;35.70
4306;DHT22;2166;49.926;8.608;2022-07-09T15:35:48;33.90;35.90
4306;DHT22;2166;49.926;8.608;2022-07-09T15:38:16;33.50;36.80
4306;DHT22;2166;49.926;8.608;2022-07-09T15:40:44;33.80;36.50
4306;DHT22;2166;49.926;8.608;2022-07-09T15:43:12;33.60;36.90
4306;DHT22;2166;49.926;8.608;2022-07-09T15:45:43;33.20;37.30
4306;DHT22;2166;49.926;8.608;2022-07-09T15:48:11;32.90;37.30
4306;DHT22;2166;49.926;8.608;2022-07-09T15:50:40;32.50;37.60
4306;DHT22;2166;49.926;8.608;2022-07-09T15:53:08;31.90;38.60
4306;DHT22;2166;49.926;8.608;2022-07-09T15:55:37;31.50;39.20
4306;DHT22;2166;49.926;8.608;2022-07-09T15:58:05;31.20;40.00
4306;DHT22;2166;49.926;8.608;2022-07-09T16:00:34;30.90;40.30
4306;DHT22;2166;49.926;8.608;2022-07-09T16:03:04;30.50;40.90
4306;DHT22;2166;49.926;8.608;2022-07-09T16:05:33;30.20;41.20
4306;DHT22;2166;49.926;8.608;2022-07-09T16:08:02;29.90;41.90
4306;DHT22;2166;49.926;8.608;2022-07-09T16:10:31;29.50;42.00
4306;DHT22;2166;49.926;8.608;2022-07-09T16:13:00;29.20;42.20
4306;DHT22;2166;49.926;8.608;2022-07-09T16:15:28;29.00;42.70
4306;DHT22;2166;49.926;8.608;2022-07-09T16:17:57;28.70;43.10